sensor_id;sensor_type;location;lat;lon;timestamp;pressure;altitude;pressure_sealevel;temperature;humidity
47366;BME280;33105;47.964;7.982;2022-07-23T00:00:21;96634.41;;;22.04;67.90
47366;BME280;33105;47.964;7.982;2022-07-23T00:03:22;96657.25;;;21.86;68.35
47366;BME280;33105;47.964;7.982;2022-07-23T00:06:24;96644.94;;;21.85;66.86
47366;BME280;33105;47.964;7.982;2022-07-23T00:09:26;96645.50;;;21.88;64.73
47366;BME280;33105;47.964;7.982;2022-07-23T00:12:27;96643.94;;;22.07;64.37
47366;BME280;33105;47.964;7.982;2022-07-23T00:15:28;96638.97;;;22.23;63.32
47366;BME280;33105;47.964;7.982;2022-07-23T00:18:29;96640.59;;;22.14;62.82
47366;BME280;33105;47.964;7.982;2022-07-23T00:21:30;96642.84;;;22.19;63.41
47366;BME280;33105;47.964;7.982;2022-07-23T00:24:32;96646.84;;;22.25;63.46
47366;BME280;33105;47.964;7.982;2022-07-23T00:27:33;96658.75;;;22.09;64.25
47366;BME280;33105;47.964;7.982;2022-07-23T00:30:34;96672.69;;;22.23;63.10
47366;BME280;33105;47.964;7.982;2022-07-23T00:33:35;96675.84;;;22.16;64.11
47366;BME280;33105;47.964;7.982;2022-07-23T00:36:36;96667.75;;;22.18;63.14
47366;BME280;33105;47.964;7.982;2022-07-23T00:39:37;96649.50;;;22.25;63.12
47366;BME280;33105;47.964;7.982;2022-07-23T00:42:39;96643.66;;;22.10;65.37
47366;BME280;33105;47.964;7.982;2022-07-23T00:45:40;96639.44;;;22.07;68.32
47366;BME280;33105;47.964;7.982;2022-07-23T00:48:42;96627.94;;;21.97;68.70
47366;BME280;33105;47.964;7.982;2022-07-23T00:51:43;96610.19;;;21.76;70.11
47366;BME280;33105;47.964;7.982;2022-07-23T00:54:44;96601.75;;;21.62;72.79
47366;BME280;33105;47.964;7.982;2022-07-23T00:57:46;96605.03;;;21.54;72.33
47366;BME280;33105;47.964;7.982;2022-07-23T01:00:47;96594.41;;;21.54;73.26
47366;BME280;33105;47.964;7.982;2022-07-23T01:03:48;96597.16;;;21.43;72.66
47366;BME280;33105;47.964;7.982;2022-07-23T01:06:50;96601.38;;;21.34;73.59
47366;BME280;33105;47.964;7.982;2022-07-23T01:09:52;96614.59;;;21.24;73.69
47366;BME280;33105;47.964;7.982;2022-07-23T01:12:53;96633.66;;;21.18;73.50
47366;BME280;33105;47.964;7.982;2022-07-23T01:15:54;96641.56;;;21.08;73.31
47366;BME280;33105;47.964;7.982;2022-07-23T01:18:56;96635.91;;;21.02;75.11
47366;BME280;33105;47.964;7.982;2022-07-23T01:21:58;96615.16;;;21.07;76.50
47366;BME280;33105;47.964;7.982;2022-07-23T01:25:02;96603.31;;;21.11;74.74
47366;BME280;33105;47.964;7.982;2022-07-23T01:28:03;96578.22;;;21.15;74.24
47366;BME280;33105;47.964;7.982;2022-07-23T01:31:05;96570.13;;;21.17;69.12
47366;BME280;33105;47.964;7.982;2022-07-23T01:34:09;96578.72;;;21.09;70.95
47366;BME280;33105;47.964;7.982;2022-07-23T01:37:11;96582.63;;;21.26;70.61
47366;BME280;33105;47.964;7.982;2022-07-23T01:40:12;96582.16;;;21.21;69.09
47366;BME280;33105;47.964;7.982;2022-07-23T01:43:13;96566.88;;;21.34;67.98
47366;BME280;33105;47.964;7.982;2022-07-23T01:46:15;96565.88;;;21.46;67.88
47366;BME280;33105;47.964;7.982;2022-07-23T01:49:20;96582.69;;;21.35;68.48
47366;BME280;33105;47.964;7.982;2022-07-23T01:52:40;96584.19;;;21.28;72.14
47366;BME280;33105;47.964;7.982;2022-07-23T01:55:42;96584.41;;;21.25;74.11
47366;BME280;33105;47.964;7.982;2022-07-23T01:58:44;96583.97;;;21.20;72.32
47366;BME280;33105;47.964;7.982;2022-07-23T02:01:45;96588.63;;;21.07;75.61
47366;BME280;33105;47.964;7.982;2022-07-23T02:04:46;96592.97;;;21.08;72.82
47366;BME280;33105;47.964;7.982;2022-07-23T02:07:47;96585.50;;;21.02;72.86
47366;BME280;33105;47.964;7.982;2022-07-23T02:10:48;96595.69;;;21.18;71.58
47366;BME280;33105;47.964;7.982;2022-07-23T02:13:52;96582.81;;;21.13;72.46
47366;BME280;33105;47.964;7.982;2022-07-23T02:16:53;96584.88;;;21.09;71.24
47366;BME280;33105;47.964;7.982;2022-07-23T02:19:54;96584.03;;;21.09;69.45
47366;BME280;33105;47.964;7.982;2022-07-23T02:22:56;96594.91;;;21.06;71.34
47366;BME280;33105;47.964;7.982;2022-07-23T02:25:58;96593.03;;;20.97;71.31
47366;BME280;33105;47.964;7.982;2022-07-23T02:28:59;96595.34;;;20.90;67.88
47366;BME280;33105;47.964;7.982;2022-07-23T02:32:00;96597.59;;;20.94;67.34
47366;BME280;33105;47.964;7.982;2022-07-23T02:35:02;96601.94;;;20.96;65.37
47366;BME280;33105;47.964;7.982;2022-07-23T02:38:04;96615.88;;;21.09;63.42
47366;BME280;33105;47.964;7.982;2022-07-23T02:41:06;96625.38;;;21.11;63.90
47366;BME280;33105;47.964;7.982;2022-07-23T02:44:07;96608.56;;;21.22;63.07
47366;BME280;33105;47.964;7.982;2022-07-23T02:47:09;96596.19;;;21.11;70.37
47366;BME280;33105;47.964;7.982;2022-07-23T02:50:10;96606.53;;;20.93;70.71
47366;BME280;33105;47.964;7.982;2022-07-23T02:53:13;96620.94;;;20.68;72.28
47366;BME280;33105;47.964;7.982;2022-07-23T02:56:15;96640.34;;;20.46;72.70
47366;BME280;33105;47.964;7.982;2022-07-23T02:59:17;96638.34;;;20.27;74.33
47366;BME280;33105;47.964;7.982;2022-07-23T03:02:19;96640.47;;;20.33;75.01
47366;BME280;33105;47.964;7.982;2022-07-23T03:05:20;96635.78;;;20.37;76.09
47366;BME280;33105;47.964;7.982;2022-07-23T03:08:21;96631.59;;;20.35;77.10
47366;BME280;33105;47.964;7.982;2022-07-23T03:11:26;96642.41;;;20.31;78.28
47366;BME280;33105;47.964;7.982;2022-07-23T03:14:28;96663.13;;;20.26;78.05
47366;BME280;33105;47.964;7.982;2022-07-23T03:17:29;96689.16;;;19.99;79.13
47366;BME280;33105;47.964;7.982;2022-07-23T03:20:30;96686.50;;;20.10;79.06
47366;BME280;33105;47.964;7.982;2022-07-23T03:23:32;96684.94;;;19.96;80.02
47366;BME280;33105;47.964;7.982;2022-07-23T03:26:33;96679.84;;;19.93;79.65
47366;BME280;33105;47.964;7.982;2022-07-23T03:29:34;96687.34;;;19.99;80.92
47366;BME280;33105;47.964;7.982;2022-07-23T03:32:35;96701.56;;;19.98;81.08
47366;BME280;33105;47.964;7.982;2022-07-23T03:35:36;96683.00;;;19.98;79.73
47366;BME280;33105;47.964;7.982;2022-07-23T03:39:10;96697.94;;;19.99;79.60
47366;BME280;33105;47.964;7.982;2022-07-23T03:42:11;96727.78;;;19.90;80.31
47366;BME280;33105;47.964;7.982;2022-07-23T03:45:12;96730.41;;;19.90;78.38
47366;BME280;33105;47.964;7.982;2022-07-23T03:48:13;96728.72;;;20.00;79.02
47366;BME280;33105;47.964;7.982;2022-07-23T03:51:14;96725.38;;;19.98;80.15
47366;BME280;33105;47.964;7.982;2022-07-23T03:54:16;96711.06;;;20.01;80.06
47366;BME280;33105;47.964;7.982;2022-07-23T03:57:17;96711.88;;;19.90;80.58
47366;BME280;33105;47.964;7.982;2022-07-23T04:00:18;96710.19;;;19.89;79.37
47366;BME280;33105;47.964;7.982;2022-07-23T04:03:23;96713.47;;;19.68;80.54
47366;BME280;33105;47.964;7.982;2022-07-23T04:06:25;96699.47;;;19.55;81.85
47366;BME280;33105;47.964;7.982;2022-07-23T04:09:27;96690.59;;;19.56;81.77
47366;BME280;33105;47.964;7.982;2022-07-23T04:12:29;96685.78;;;19.61;81.90
47366;BME280;33105;47.964;7.982;2022-07-23T04:15:30;96684.78;;;19.51;82.38
47366;BME280;33105;47.964;7.982;2022-07-23T04:18:32;96698.03;;;19.62;79.59
47366;BME280;33105;47.964;7.982;2022-07-23T04:21:49;96704.94;;;19.65;79.52
47366;BME280;33105;47.964;7.982;2022-07-23T04:24:50;96696.38;;;19.61;76.32
47366;BME280;33105;47.964;7.982;2022-07-23T04:27:52;96695.69;;;19.70;76.81
47366;BME280;33105;47.964;7.982;2022-07-23T04:30:56;96695.19;;;19.65;74.70
47366;BME280;33105;47.964;7.982;2022-07-23T04:33:57;96697.59;;;19.68;73.41
47366;BME280;33105;47.964;7.982;2022-07-23T04:36:58;96695.00;;;19.80;72.69
47366;BME280;33105;47.964;7.982;2022-07-23T04:40:00;96701.97;;;19.69;72.34
47366;BME280;33105;47.964;7.982;2022-07-23T04:43:02;96707.03;;;19.84;73.71
47366;BME280;33105;47.964;7.982;2022-07-23T04:46:03;96703.97;;;20.01;73.22
47366;BME280;33105;47.964;7.982;2022-07-23T04:49:10;96709.25;;;20.01;72.03
47366;BME280;33105;47.964;7.982;2022-07-23T04:52:11;96713.09;;;19.97;71.45
47366;BME280;33105;47.964;7.982;2022-07-23T04:55:12;96702.25;;;20.00;72.58
47366;BME280;33105;47.964;7.982;2022-07-23T04:58:13;96703.72;;;20.04;70.90
47366;BME280;33105;47.964;7.982;2022-07-23T05:01:15;96704.22;;;20.21;72.78
47366;BME280;33105;47.964;7.982;2022-07-23T05:04:16;96710.09;;;20.24;72.22
47366;BME280;33105;47.964;7.982;2022-07-23T05:07:18;96715.03;;;20.29;72.20
47366;BME280;33105;47.964;7.982;2022-07-23T05:10:19;96716.28;;;20.36;72.85
47366;BME280;33105;47.964;7.982;2022-07-23T05:13:20;96719.63;;;20.27;72.04
47366;BME280;33105;47.964;7.982;2022-07-23T05:16:25;96721.44;;;20.49;71.98
47366;BME280;33105;47.964;7.982;2022-07-23T05:19:28;96714.84;;;20.66;71.45
47366;BME280;33105;47.964;7.982;2022-07-23T05:22:29;96715.56;;;20.79;72.22
47366;BME280;33105;47.964;7.982;2022-07-23T05:25:31;96710.00;;;20.82;73.10
47366;BME280;33105;47.964;7.982;2022-07-23T05:28:32;96710.47;;;20.76;71.52
47366;BME280;33105;47.964;7.982;2022-07-23T05:31:33;96702.00;;;20.93;73.76
47366;BME280;33105;47.964;7.982;2022-07-23T05:34:34;96702.66;;;21.18;75.05
47366;BME280;33105;47.964;7.982;2022-07-23T05:37:35;96700.69;;;21.31;72.07
47366;BME280;33105;47.964;7.982;2022-07-23T05:40:37;96711.78;;;21.48;69.88
47366;BME280;33105;47.964;7.982;2022-07-23T05:43:38;96710.34;;;21.44;72.50
47366;BME280;33105;47.964;7.982;2022-07-23T05:46:44;96703.34;;;21.31;70.50
47366;BME280;33105;47.964;7.982;2022-07-23T05:49:51;96705.44;;;21.28;71.25
47366;BME280;33105;47.964;7.982;2022-07-23T05:53:08;96714.69;;;21.33;73.06
47366;BME280;33105;47.964;7.982;2022-07-23T05:56:12;96713.38;;;21.28;69.77
47366;BME280;33105;47.964;7.982;2022-07-23T05:59:13;96718.78;;;21.38;72.79
47366;BME280;33105;47.964;7.982;2022-07-23T06:02:15;96728.59;;;21.58;73.28
47366;BME280;33105;47.964;7.982;2022-07-23T06:05:17;96721.50;;;21.80;71.60
47366;BME280;33105;47.964;7.982;2022-07-23T06:08:20;96733.63;;;21.72;75.89
47366;BME280;33105;47.964;7.982;2022-07-23T06:11:21;96735.97;;;21.66;74.96
47366;BME280;33105;47.964;7.982;2022-07-23T06:14:22;96743.25;;;21.52;72.98
47366;BME280;33105;47.964;7.982;2022-07-23T06:17:29;96742.09;;;21.87;73.36
47366;BME280;33105;47.964;7.982;2022-07-23T06:20:31;96726.88;;;21.89;71.32
47366;BME280;33105;47.964;7.982;2022-07-23T06:23:33;96738.22;;;22.12;72.40
47366;BME280;33105;47.964;7.982;2022-07-23T06:26:34;96736.28;;;22.35;73.86
47366;BME280;33105;47.964;7.982;2022-07-23T06:29:35;96727.50;;;22.45;73.40
47366;BME280;33105;47.964;7.982;2022-07-23T06:32:36;96735.97;;;22.59;69.67
47366;BME280;33105;47.964;7.982;2022-07-23T06:35:38;96736.91;;;22.89;69.47
47366;BME280;33105;47.964;7.982;2022-07-23T06:38:40;96737.53;;;23.03;70.04
47366;BME280;33105;47.964;7.982;2022-07-23T06:41:42;96735.31;;;23.08;65.52
47366;BME280;33105;47.964;7.982;2022-07-23T06:44:43;96736.31;;;22.76;66.63
47366;BME280;33105;47.964;7.982;2022-07-23T06:47:44;96736.72;;;23.21;67.48
47366;BME280;33105;47.964;7.982;2022-07-23T06:50:45;96734.34;;;23.09;68.64
47366;BME280;33105;47.964;7.982;2022-07-23T06:53:46;96737.00;;;23.09;66.97
47366;BME280;33105;47.964;7.982;2022-07-23T06:56:47;96733.00;;;22.93;67.53
47366;BME280;33105;47.964;7.982;2022-07-23T06:59:50;96740.81;;;23.26;68.68
47366;BME280;33105;47.964;7.982;2022-07-23T07:02:53;96749.38;;;23.39;66.70
47366;BME280;33105;47.964;7.982;2022-07-23T07:05:54;96750.53;;;23.56;65.32
47366;BME280;33105;47.964;7.982;2022-07-23T07:08:55;96751.63;;;23.44;65.03
47366;BME280;33105;47.964;7.982;2022-07-23T07:11:57;96750.22;;;23.69;65.33
47366;BME280;33105;47.964;7.982;2022-07-23T07:14:59;96750.50;;;23.46;64.91
47366;BME280;33105;47.964;7.982;2022-07-23T07:18:00;96749.66;;;23.46;61.42
47366;BME280;33105;47.964;7.982;2022-07-23T07:21:01;96755.28;;;23.42;63.10
47366;BME280;33105;47.964;7.982;2022-07-23T07:24:02;96762.81;;;23.18;62.86
47366;BME280;33105;47.964;7.982;2022-07-23T07:27:04;96774.81;;;23.12;63.23
47366;BME280;33105;47.964;7.982;2022-07-23T07:30:05;96779.00;;;23.05;65.38
47366;BME280;33105;47.964;7.982;2022-07-23T07:33:07;96786.88;;;23.07;64.93
47366;BME280;33105;47.964;7.982;2022-07-23T07:36:08;96785.81;;;23.38;63.93
47366;BME280;33105;47.964;7.982;2022-07-23T07:39:09;96789.72;;;23.44;64.01
47366;BME280;33105;47.964;7.982;2022-07-23T07:42:11;96800.38;;;23.34;65.58
47366;BME280;33105;47.964;7.982;2022-07-23T07:45:12;96798.13;;;23.39;64.98
47366;BME280;33105;47.964;7.982;2022-07-23T07:48:13;96802.09;;;23.45;64.13
47366;BME280;33105;47.964;7.982;2022-07-23T07:51:14;96805.75;;;23.54;64.20
47366;BME280;33105;47.964;7.982;2022-07-23T07:54:16;96798.00;;;23.31;62.74
47366;BME280;33105;47.964;7.982;2022-07-23T07:57:17;96796.88;;;22.93;65.04
47366;BME280;33105;47.964;7.982;2022-07-23T08:00:18;96812.91;;;23.03;66.50
47366;BME280;33105;47.964;7.982;2022-07-23T08:03:19;96809.84;;;23.17;65.83
47366;BME280;33105;47.964;7.982;2022-07-23T08:06:20;96814.34;;;23.17;65.27
47366;BME280;33105;47.964;7.982;2022-07-23T08:09:21;96805.09;;;23.21;65.29
47366;BME280;33105;47.964;7.982;2022-07-23T08:12:23;96811.25;;;23.12;66.57
47366;BME280;33105;47.964;7.982;2022-07-23T08:15:25;96815.16;;;23.08;66.52
47366;BME280;33105;47.964;7.982;2022-07-23T08:18:27;96819.53;;;23.09;68.27
47366;BME280;33105;47.964;7.982;2022-07-23T08:21:28;96814.50;;;23.15;66.90
47366;BME280;33105;47.964;7.982;2022-07-23T08:24:29;96810.09;;;23.55;66.43
47366;BME280;33105;47.964;7.982;2022-07-23T08:27:31;96805.75;;;23.54;65.07
47366;BME280;33105;47.964;7.982;2022-07-23T08:30:33;96816.09;;;23.47;66.66
47366;BME280;33105;47.964;7.982;2022-07-23T08:33:34;96826.91;;;23.55;67.47
47366;BME280;33105;47.964;7.982;2022-07-23T08:36:35;96820.03;;;23.53;65.97
47366;BME280;33105;47.964;7.982;2022-07-23T08:39:37;96819.19;;;23.42;64.92
47366;BME280;33105;47.964;7.982;2022-07-23T08:42:38;96817.25;;;23.54;65.29
47366;BME280;33105;47.964;7.982;2022-07-23T08:45:41;96811.38;;;23.70;64.18
47366;BME280;33105;47.964;7.982;2022-07-23T08:48:47;96826.34;;;23.61;62.79
47366;BME280;33105;47.964;7.982;2022-07-23T08:51:48;96818.41;;;23.71;63.05
47366;BME280;33105;47.964;7.982;2022-07-23T08:54:49;96809.44;;;23.92;62.22
47366;BME280;33105;47.964;7.982;2022-07-23T08:57:52;96808.00;;;24.36;63.45
47366;BME280;33105;47.964;7.982;2022-07-23T09:00:54;96813.03;;;24.49;59.13
47366;BME280;33105;47.964;7.982;2022-07-23T09:03:57;96806.78;;;24.78;60.47
47366;BME280;33105;47.964;7.982;2022-07-23T09:06:58;96802.41;;;25.24;57.94
47366;BME280;33105;47.964;7.982;2022-07-23T09:10:10;96809.63;;;25.41;55.31
47366;BME280;33105;47.964;7.982;2022-07-23T09:13:37;96809.13;;;25.18;56.39
47366;BME280;33105;47.964;7.982;2022-07-23T09:16:39;96805.44;;;25.57;54.90
47366;BME280;33105;47.964;7.982;2022-07-23T09:19:42;96800.44;;;25.26;53.47
47366;BME280;33105;47.964;7.982;2022-07-23T09:22:45;96803.41;;;25.23;53.01
47366;BME280;33105;47.964;7.982;2022-07-23T09:25:46;96810.97;;;24.90;52.38
47366;BME280;33105;47.964;7.982;2022-07-23T09:28:57;96807.31;;;24.91;51.37
47366;BME280;33105;47.964;7.982;2022-07-23T09:32:01;96810.41;;;24.96;49.69
47366;BME280;33105;47.964;7.982;2022-07-23T09:35:03;96811.47;;;25.03;50.52
47366;BME280;33105;47.964;7.982;2022-07-23T09:38:04;96803.66;;;24.92;51.27
47366;BME280;33105;47.964;7.982;2022-07-23T09:41:09;96806.72;;;24.97;51.86
47366;BME280;33105;47.964;7.982;2022-07-23T09:44:16;96808.47;;;25.16;53.87
47366;BME280;33105;47.964;7.982;2022-07-23T09:47:18;96805.25;;;25.13;54.05
47366;BME280;33105;47.964;7.982;2022-07-23T09:50:20;96805.03;;;25.52;53.90
47366;BME280;33105;47.964;7.982;2022-07-23T09:53:24;96812.09;;;25.25;55.77
47366;BME280;33105;47.964;7.982;2022-07-23T09:56:27;96806.19;;;25.49;53.82
47366;BME280;33105;47.964;7.982;2022-07-23T09:59:32;96809.22;;;25.82;52.65
47366;BME280;33105;47.964;7.982;2022-07-23T10:02:34;96805.03;;;25.97;53.73
47366;BME280;33105;47.964;7.982;2022-07-23T10:05:59;96800.91;;;26.03;51.84
47366;BME280;33105;47.964;7.982;2022-07-23T10:09:25;96810.59;;;25.68;53.34
47366;BME280;33105;47.964;7.982;2022-07-23T10:12:47;96808.41;;;25.99;52.61
47366;BME280;33105;47.964;7.982;2022-07-23T10:16:02;96816.41;;;26.43;54.21
47366;BME280;33105;47.964;7.982;2022-07-23T10:19:04;96818.16;;;26.70;52.77
47366;BME280;33105;47.964;7.982;2022-07-23T10:22:11;96819.97;;;26.44;52.41
47366;BME280;33105;47.964;7.982;2022-07-23T10:25:38;96828.38;;;26.31;52.17
47366;BME280;33105;47.964;7.982;2022-07-23T10:28:56;96831.16;;;26.21;51.66
47366;BME280;33105;47.964;7.982;2022-07-23T10:32:06;96828.31;;;26.05;54.16
47366;BME280;33105;47.964;7.982;2022-07-23T10:35:31;96818.69;;;26.12;52.11
47366;BME280;33105;47.964;7.982;2022-07-23T10:38:42;96816.63;;;26.24;50.69
47366;BME280;33105;47.964;7.982;2022-07-23T10:41:48;96826.47;;;26.59;49.25
47366;BME280;33105;47.964;7.982;2022-07-23T10:44:50;96829.84;;;27.30;50.89
47366;BME280;33105;47.964;7.982;2022-07-23T10:47:51;96822.50;;;26.98;49.83
47366;BME280;33105;47.964;7.982;2022-07-23T10:51:08;96824.44;;;26.61;50.26
47366;BME280;33105;47.964;7.982;2022-07-23T10:54:21;96817.69;;;27.09;49.96
47366;BME280;33105;47.964;7.982;2022-07-23T10:57:25;96823.47;;;27.23;48.58
47366;BME280;33105;47.964;7.982;2022-07-23T11:00:28;96827.78;;;27.16;49.35
47366;BME280;33105;47.964;7.982;2022-07-23T11:03:31;96829.59;;;26.81;48.68
47366;BME280;33105;47.964;7.982;2022-07-23T11:09:49;96836.78;;;27.15;49.85
47366;BME280;33105;47.964;7.982;2022-07-23T11:12:50;96840.06;;;27.00;50.66
47366;BME280;33105;47.964;7.982;2022-07-23T11:19:04;96835.78;;;26.81;49.49
47366;BME280;33105;47.964;7.982;2022-07-23T11:22:06;96830.75;;;26.78;50.97
47366;BME280;33105;47.964;7.982;2022-07-23T11:25:07;96829.22;;;26.76;49.92
47366;BME280;33105;47.964;7.982;2022-07-23T11:28:10;96828.34;;;26.67;51.85
47366;BME280;33105;47.964;7.982;2022-07-23T11:31:18;96827.38;;;26.76;48.52
47366;BME280;33105;47.964;7.982;2022-07-23T11:34:44;96824.97;;;26.03;50.75
47366;BME280;33105;47.964;7.982;2022-07-23T11:37:47;96835.63;;;26.83;49.54
47366;BME280;33105;47.964;7.982;2022-07-23T11:40:54;96832.78;;;26.40;50.70
47366;BME280;33105;47.964;7.982;2022-07-23T11:43:58;96829.16;;;26.67;50.26
47366;BME280;33105;47.964;7.982;2022-07-23T11:47:01;96832.22;;;26.73;49.57
47366;BME280;33105;47.964;7.982;2022-07-23T11:50:05;96829.69;;;26.97;48.72
47366;BME280;33105;47.964;7.982;2022-07-23T11:53:07;96823.09;;;26.57;47.71
47366;BME280;33105;47.964;7.982;2022-07-23T11:56:10;96822.66;;;26.96;47.51
47366;BME280;33105;47.964;7.982;2022-07-23T11:59:12;96821.19;;;27.36;49.79
47366;BME280;33105;47.964;7.982;2022-07-23T12:02:13;96821.03;;;27.11;50.16
47366;BME280;33105;47.964;7.982;2022-07-23T12:05:20;96816.31;;;27.05;47.88
47366;BME280;33105;47.964;7.982;2022-07-23T12:08:22;96818.44;;;26.94;46.97
47366;BME280;33105;47.964;7.982;2022-07-23T12:11:23;96825.44;;;27.63;47.79
47366;BME280;33105;47.964;7.982;2022-07-23T12:14:25;96823.22;;;27.50;45.72
47366;BME280;33105;47.964;7.982;2022-07-23T12:17:31;96822.44;;;27.74;48.28
47366;BME280;33105;47.964;7.982;2022-07-23T12:20:38;96818.00;;;27.91;47.08
47366;BME280;33105;47.964;7.982;2022-07-23T12:23:40;96819.34;;;27.87;46.40
47366;BME280;33105;47.964;7.982;2022-07-23T12:27:10;96806.78;;;28.21;48.04
47366;BME280;33105;47.964;7.982;2022-07-23T12:30:39;96797.88;;;28.12;46.89
47366;BME280;33105;47.964;7.982;2022-07-23T12:33:40;96804.59;;;28.08;47.55
47366;BME280;33105;47.964;7.982;2022-07-23T12:36:43;96804.41;;;27.93;46.31
47366;BME280;33105;47.964;7.982;2022-07-23T12:39:44;96801.56;;;28.27;44.25
47366;BME280;33105;47.964;7.982;2022-07-23T12:42:56;96801.06;;;28.48;42.29
47366;BME280;33105;47.964;7.982;2022-07-23T12:46:16;96796.06;;;28.53;43.20
47366;BME280;33105;47.964;7.982;2022-07-23T12:49:27;96795.28;;;28.92;44.34
47366;BME280;33105;47.964;7.982;2022-07-23T12:52:28;96791.63;;;28.77;43.43
47366;BME280;33105;47.964;7.982;2022-07-23T12:55:30;96793.25;;;28.94;42.76
47366;BME280;33105;47.964;7.982;2022-07-23T12:58:42;96796.22;;;28.60;41.03
47366;BME280;33105;47.964;7.982;2022-07-23T13:01:44;96797.56;;;28.56;40.87
47366;BME280;33105;47.964;7.982;2022-07-23T13:04:49;96793.84;;;28.65;43.72
47366;BME280;33105;47.964;7.982;2022-07-23T13:07:51;96796.84;;;28.62;41.68
47366;BME280;33105;47.964;7.982;2022-07-23T13:10:52;96794.88;;;28.48;42.15
47366;BME280;33105;47.964;7.982;2022-07-23T13:13:54;96785.56;;;28.83;42.35
47366;BME280;33105;47.964;7.982;2022-07-23T13:16:55;96787.09;;;28.77;42.20
47366;BME280;33105;47.964;7.982;2022-07-23T13:19:56;96787.44;;;28.66;42.90
47366;BME280;33105;47.964;7.982;2022-07-23T13:22:58;96782.31;;;29.04;43.44
47366;BME280;33105;47.964;7.982;2022-07-23T13:25:59;96781.53;;;28.87;40.38
47366;BME280;33105;47.964;7.982;2022-07-23T13:29:00;96789.03;;;29.00;38.33
47366;BME280;33105;47.964;7.982;2022-07-23T13:32:01;96783.13;;;28.49;39.75
47366;BME280;33105;47.964;7.982;2022-07-23T13:35:04;96777.06;;;28.63;41.76
47366;BME280;33105;47.964;7.982;2022-07-23T13:38:06;96777.69;;;28.73;40.65
47366;BME280;33105;47.964;7.982;2022-07-23T13:41:10;96780.59;;;28.39;42.93
47366;BME280;33105;47.964;7.982;2022-07-23T13:44:11;96779.63;;;28.15;43.73
47366;BME280;33105;47.964;7.982;2022-07-23T13:47:12;96785.16;;;28.14;40.87
47366;BME280;33105;47.964;7.982;2022-07-23T13:50:14;96774.22;;;28.32;40.45
47366;BME280;33105;47.964;7.982;2022-07-23T13:53:19;96783.09;;;28.65;40.77
47366;BME280;33105;47.964;7.982;2022-07-23T13:56:20;96789.09;;;28.75;40.47
47366;BME280;33105;47.964;7.982;2022-07-23T13:59:22;96785.31;;;29.17;40.49
47366;BME280;33105;47.964;7.982;2022-07-23T14:02:24;96782.81;;;29.47;40.09
47366;BME280;33105;47.964;7.982;2022-07-23T14:05:25;96786.72;;;29.68;37.64
47366;BME280;33105;47.964;7.982;2022-07-23T14:08:27;96786.59;;;29.30;40.16
47366;BME280;33105;47.964;7.982;2022-07-23T14:11:28;96783.25;;;29.28;37.96
47366;BME280;33105;47.964;7.982;2022-07-23T14:14:31;96785.66;;;29.14;40.37
47366;BME280;33105;47.964;7.982;2022-07-23T14:17:32;96785.56;;;29.70;41.55
47366;BME280;33105;47.964;7.982;2022-07-23T14:20:34;96784.84;;;29.45;41.05
47366;BME280;33105;47.964;7.982;2022-07-23T14:23:35;96783.31;;;29.11;38.86
47366;BME280;33105;47.964;7.982;2022-07-23T14:26:36;96778.44;;;29.07;39.50
47366;BME280;33105;47.964;7.982;2022-07-23T14:29:38;96778.59;;;29.13;39.67
47366;BME280;33105;47.964;7.982;2022-07-23T14:32:39;96774.41;;;28.14;41.34
47366;BME280;33105;47.964;7.982;2022-07-23T14:35:40;96774.69;;;28.76;41.89
47366;BME280;33105;47.964;7.982;2022-07-23T14:38:41;96767.22;;;28.95;39.12
47366;BME280;33105;47.964;7.982;2022-07-23T14:41:43;96766.91;;;28.98;38.87
47366;BME280;33105;47.964;7.982;2022-07-23T14:44:44;96772.50;;;29.28;39.23
47366;BME280;33105;47.964;7.982;2022-07-23T14:47:46;96772.00;;;28.85;39.61
47366;BME280;33105;47.964;7.982;2022-07-23T14:50:47;96770.19;;;28.52;41.80
47366;BME280;33105;47.964;7.982;2022-07-23T14:53:49;96764.69;;;28.21;41.83
47366;BME280;33105;47.964;7.982;2022-07-23T14:56:50;96771.25;;;28.99;42.65
47366;BME280;33105;47.964;7.982;2022-07-23T14:59:51;96773.69;;;29.56;40.52
47366;BME280;33105;47.964;7.982;2022-07-23T15:02:53;96769.25;;;28.93;40.05
47366;BME280;33105;47.964;7.982;2022-07-23T15:05:54;96778.00;;;28.87;40.15
47366;BME280;33105;47.964;7.982;2022-07-23T15:08:55;96767.31;;;28.70;41.12
47366;BME280;33105;47.964;7.982;2022-07-23T15:11:57;96770.16;;;28.77;41.87
47366;BME280;33105;47.964;7.982;2022-07-23T15:14:58;96773.09;;;28.98;41.12
47366;BME280;33105;47.964;7.982;2022-07-23T15:17:59;96782.75;;;28.68;41.14
47366;BME280;33105;47.964;7.982;2022-07-23T15:21:01;96789.34;;;28.17;42.79
47366;BME280;33105;47.964;7.982;2022-07-23T15:24:03;96782.28;;;28.40;43.22
47366;BME280;33105;47.964;7.982;2022-07-23T15:27:04;96782.22;;;28.81;42.33
47366;BME280;33105;47.964;7.982;2022-07-23T15:30:06;96791.16;;;28.41;41.70
47366;BME280;33105;47.964;7.982;2022-07-23T15:33:07;96782.94;;;28.42;44.29
47366;BME280;33105;47.964;7.982;2022-07-23T15:36:08;96779.03;;;28.77;42.38
47366;BME280;33105;47.964;7.982;2022-07-23T15:39:10;96778.56;;;28.58;42.13
47366;BME280;33105;47.964;7.982;2022-07-23T15:42:11;96786.47;;;28.26;44.99
47366;BME280;33105;47.964;7.982;2022-07-23T15:45:13;96779.09;;;28.36;42.63
47366;BME280;33105;47.964;7.982;2022-07-23T15:48:14;96791.34;;;28.23;42.85
47366;BME280;33105;47.964;7.982;2022-07-23T15:51:15;96790.19;;;28.09;44.13
47366;BME280;33105;47.964;7.982;2022-07-23T15:54:16;96786.44;;;27.69;44.95
47366;BME280;33105;47.964;7.982;2022-07-23T15:57:18;96798.34;;;27.24;45.08
47366;BME280;33105;47.964;7.982;2022-07-23T16:00:19;96794.78;;;27.58;45.16
47366;BME280;33105;47.964;7.982;2022-07-23T16:03:20;96780.34;;;27.42;45.39
47366;BME280;33105;47.964;7.982;2022-07-23T16:06:22;96773.28;;;27.33;44.95
47366;BME280;33105;47.964;7.982;2022-07-23T16:09:23;96773.66;;;27.12;46.37
47366;BME280;33105;47.964;7.982;2022-07-23T16:12:24;96778.63;;;26.99;45.67
47366;BME280;33105;47.964;7.982;2022-07-23T16:15:26;96779.78;;;26.96;44.82